Terminal Aerodrome Forecast
Issued by NWS

Home | Current Version | Previous Version | Text Only | Print | Product List | Glossary On
Versions: 1 2 3 4 5 6 7 8 9 10 11 12 13
000
FTUS42 KFFC 221413 AAA
TAFRYY
TAF AMD
KRYY 221413Z 2214/2312 10004KT P6SM FEW028 OVC250
     FM221600 13007KT P6SM BKN025
     FM221800 16009KT P6SM VCSH FEW008 BKN020
     FM222200 17009KT 4SM -SHRA OVC007 PROB30 2300/2304 21012G22KT
      3SM TSRA OVC008CB
     FM230600 22010KT 6SM BR OVC015
     FM230900 27008KT P6SM BKN050=

USA.gov is the U.S. government's official web portal to all federal, state and local government web resources and services.